Aérodrome :
LOGIN :

S'inscrire | Disclaimer

   EN    FR    IT 

 










Légende :    VFR   VFR Marginal   IFR   IFR Intensif   IFR Très Intensif
Visi : 
Plafond : 
>= 8 km
>= 3000ft
5 à 8 km
1000 à 3000 ft
1500m à 5 km
500 à 1000 ft
800 à 1500m
200 à 500 ft
< 800m
< 200 ft
Symboles :   Orages  Brouillard  Fortes neiges  Fortes précipitations  Vent > 20 kt
SIGMETs :   Divers  Orages  Givrage  Turbulence  Onde Orograph.  Cendres Volcan.







- Altitude de l'aérodrome : 913 ft
- Voir les cartes d'approche


LFSX - Luxeuil

DERNIER METAR :
  • 181930Z AUTO 13008KT 090V160 CAVOK 03/M02 Q1017 TEMPO 4000 BR

METARs EXPIRÉS :
  • 181900Z AUTO 11005KT CAVOK 03/M01 Q1017 TEMPO 4000 BR
  • 181830Z AUTO 13007KT 100V160 CAVOK 03/M01 Q1017 TEMPO 4000 BR
  • 181800Z AUTO 14005KT 080V170 CAVOK 03/M01 Q1017 TEMPO 4000 BR
  • 181730Z AUTO 15010KT CAVOK 04/M01 Q1017 TEMPO 4000 BR
  • 181700Z AUTO 16011KT CAVOK 04/M00 Q1018 TEMPO 4000 BR

TAF TAF LFSX
Valide du 18 à 15h jusqu'au 19 à 15h UTC


181400Z 1815/1915 15010KT CAVOK
PROB40
TEMPO 1818/1907 4000 BR
BECMG 1907/1909 22010KT 4000 RA BKN010
Pas de NOTAMs connus pour ce terrain.



MET'MAP, la Météo Aéronautique d'un coup d'oeil ! - Copyright ORBIFLY Décembre 2007 - Disclaimer

ORBIFLY MET'MAP TEAM :

Programmation & Développement : Alexandra Zaïnal
Conception & Développement : Baudouin d'Aumeries
Co-Programmation & Développement : Marc-Olivier Méhu
Soutien technique & logistique : Manuel Goepfert

Contact : metmap@orbifly.com




SOURCES & CREDITS :

   NOAA